Gratiot, Wisconsin
Current Conditions -  °F | °C
As of 2:35 AM on Saturday 25 Oct 2014 (Local Time) from KEFT Reporting Station
Haze Haze  
Wind Chill: 55°   Ceiling: 300
Heat Index: 55°   Visibility: 1.5mi
Dew Point: 55°   Wind: 12mph
Humidity: 100%   Direction: 260°W
Pressure: 29.91"   Gusts: NA
Location:  42.58°N, 90.02°W
Report Text: KEFT 250735Z AUTO 26010KT 1 1/2SM BR OVC003 13/13 A2991 RMK AO2
Loading
Personal Weather Stations






























Interactive Weather Map
Tropical Storm Tracking
New forecast layout! Learn more

10-Day Weather Forecast

Advertisements
Track Severe Weather on mobile